createdAt,value
2022-09-11T00:01:14.097Z,62.98
2022-09-11T00:03:42.574Z,63.14
2022-09-11T00:06:12.693Z,62.60
2022-09-11T00:08:40.909Z,63.16
2022-09-11T00:11:10.933Z,62.73
2022-09-11T00:13:39.580Z,63.11
2022-09-11T00:16:08.119Z,63.24
2022-09-11T00:18:38.127Z,63.35
2022-09-11T00:21:06.065Z,63.15
2022-09-11T00:23:32.557Z,63.58
2022-09-11T00:26:02.586Z,63.12
2022-09-11T00:28:29.614Z,63.46
2022-09-11T00:31:05.246Z,62.99
2022-09-11T00:33:33.527Z,63.20
2022-09-11T00:36:03.958Z,63.65
2022-09-11T00:38:32.576Z,63.64
2022-09-11T00:41:00.777Z,63.73
2022-09-11T00:43:28.858Z,63.49
2022-09-11T00:46:02.917Z,63.13
2022-09-11T00:48:36.133Z,63.19
2022-09-11T00:51:04.449Z,63.31
2022-09-11T00:53:33.765Z,63.22
2022-09-11T00:56:03.158Z,63.18
2022-09-11T00:58:34.001Z,63.21
2022-09-11T01:01:01.811Z,63.76
2022-09-11T01:03:28.991Z,63.50
2022-09-11T01:05:57.019Z,63.78
2022-09-11T01:08:23.530Z,64.06
2022-09-11T01:11:14.417Z,63.78
2022-09-11T01:13:51.750Z,63.60
2022-09-11T01:16:49.268Z,63.70
2022-09-11T01:19:41.950Z,63.61
2022-09-11T01:22:17.175Z,63.75
2022-09-11T01:25:10.912Z,63.57
2022-09-11T01:27:45.610Z,63.67
2022-09-11T01:30:13.791Z,63.55
2022-09-11T01:33:17.882Z,63.59
2022-09-11T01:35:54.510Z,63.58
2022-09-11T01:38:43.227Z,63.61
2022-09-11T01:41:16.402Z,63.93
2022-09-11T01:43:57.655Z,64.23
2022-09-11T01:46:28.218Z,64.88
2022-09-11T01:49:02.966Z,64.86
2022-09-11T01:51:32.557Z,65.51
2022-09-11T01:54:01.283Z,66.25
2022-09-11T01:56:36.524Z,66.57
2022-09-11T01:59:06.785Z,67.17
2022-09-11T02:01:36.850Z,67.43
2022-09-11T02:04:07.432Z,68.39
2022-09-11T02:06:47.884Z,68.04
2022-09-11T02:09:18.964Z,68.05
2022-09-11T02:11:49.556Z,68.10
2022-09-11T02:14:32.229Z,67.62
2022-09-11T02:17:09.649Z,67.29
2022-09-11T02:19:36.417Z,67.36
2022-09-11T02:22:02.883Z,67.11
2022-09-11T02:24:29.308Z,67.05
2022-09-11T02:27:01.705Z,66.71
2022-09-11T02:29:28.370Z,66.98
2022-09-11T02:31:55.660Z,67.02
2022-09-11T02:34:27.824Z,66.79
2022-09-11T02:37:03.651Z,67.44
2022-09-11T02:39:54.363Z,66.83
2022-09-11T02:42:58.365Z,66.92
2022-09-11T02:45:43.236Z,66.54
2022-09-11T02:48:41.881Z,67.02
2022-09-11T02:51:21.798Z,66.91
2022-09-11T02:54:09.475Z,67.12
2022-09-11T02:56:43.390Z,67.06
2022-09-11T02:59:17.679Z,66.81
2022-09-11T03:01:49.584Z,67.26
2022-09-11T03:04:18.213Z,67.30
2022-09-11T03:06:45.130Z,67.50
2022-09-11T03:09:11.531Z,67.35
2022-09-11T03:11:38.695Z,67.90
2022-09-11T03:14:05.070Z,67.79
2022-09-11T03:16:31.500Z,67.75
2022-09-11T03:18:57.979Z,67.99
2022-09-11T03:21:24.433Z,68.12
2022-09-11T03:23:50.875Z,68.04
2022-09-11T03:26:17.369Z,67.94
2022-09-11T03:28:44.353Z,67.60
2022-09-11T03:31:10.871Z,67.87
2022-09-11T03:33:37.479Z,68.01
2022-09-11T03:36:04.168Z,68.07
2022-09-11T03:38:30.762Z,67.79
2022-09-11T03:40:58.333Z,67.64
2022-09-11T03:43:24.812Z,67.69
2022-09-11T03:45:52.096Z,67.60
2022-09-11T03:48:18.834Z,67.68
2022-09-11T03:50:45.870Z,67.63
2022-09-11T03:53:12.691Z,67.55
2022-09-11T03:55:39.114Z,67.45
2022-09-11T03:58:07.172Z,67.57
2022-09-11T04:00:33.746Z,67.65
2022-09-11T04:03:00.412Z,67.26
2022-09-11T04:05:26.833Z,67.28
2022-09-11T04:07:53.870Z,67.37
2022-09-11T04:10:20.897Z,66.93
2022-09-11T04:12:48.191Z,66.98
2022-09-11T04:15:14.974Z,66.86
2022-09-11T04:17:41.630Z,67.08
2022-09-11T04:20:08.630Z,67.22
2022-09-11T04:22:35.038Z,67.15
2022-09-11T04:25:02.084Z,67.25
2022-09-11T04:27:28.459Z,67.08
2022-09-11T04:29:54.959Z,67.38
2022-09-11T04:32:22.218Z,67.27
2022-09-11T04:34:48.597Z,67.55
2022-09-11T04:37:16.055Z,67.76
2022-09-11T04:39:43.021Z,67.62
2022-09-11T04:42:10.477Z,67.22
2022-09-11T04:44:37.300Z,67.43
2022-09-11T04:47:03.821Z,67.40
2022-09-11T04:49:30.473Z,67.39
2022-09-11T04:51:57.885Z,67.31
2022-09-11T04:54:24.321Z,67.18
2022-09-11T04:56:50.918Z,67.03
2022-09-11T04:59:20.361Z,67.14
2022-09-11T05:01:46.826Z,67.41
2022-09-11T05:04:14.859Z,67.36
2022-09-11T05:06:42.810Z,67.53
2022-09-11T05:09:10.263Z,67.49
2022-09-11T05:11:38.285Z,67.63
2022-09-11T05:14:05.180Z,67.45
2022-09-11T05:16:34.394Z,67.56
2022-09-11T05:19:02.208Z,67.33
2022-09-11T05:21:28.827Z,67.18
2022-09-11T05:23:57.940Z,67.07
2022-09-11T05:26:26.742Z,66.94
2022-09-11T05:28:57.477Z,66.91
2022-09-11T05:31:25.576Z,66.95
2022-09-11T05:33:54.603Z,66.74
2022-09-11T05:36:21.113Z,66.72
2022-09-11T05:38:47.588Z,66.65
2022-09-11T05:41:15.149Z,66.80
2022-09-11T05:43:43.257Z,66.45
2022-09-11T05:46:15.295Z,66.34
2022-09-11T05:48:42.518Z,66.76
2022-09-11T05:51:14.282Z,66.50
2022-09-11T05:53:41.393Z,66.73
2022-09-11T05:56:13.296Z,66.72
2022-09-11T05:58:40.263Z,66.94
2022-09-11T06:01:09.956Z,66.92
2022-09-11T06:03:37.377Z,66.89
2022-09-11T06:06:06.407Z,67.14
2022-09-11T06:08:34.610Z,67.04
2022-09-11T06:11:03.178Z,67.10
2022-09-11T06:13:31.066Z,67.04
2022-09-11T06:15:57.569Z,66.90
2022-09-11T06:18:24.069Z,66.81
2022-09-11T06:21:01.929Z,66.53
2022-09-11T06:23:29.674Z,66.75
2022-09-11T06:26:06.040Z,66.75
2022-09-11T06:28:32.577Z,66.87
2022-09-11T06:30:59.056Z,66.88
2022-09-11T06:33:25.460Z,66.44
2022-09-11T06:36:04.017Z,66.59
2022-09-11T06:38:33.710Z,66.44
2022-09-11T06:41:05.554Z,66.50
2022-09-11T06:43:32.542Z,66.55
2022-09-11T06:46:16.594Z,66.33
2022-09-11T06:48:46.811Z,66.39
2022-09-11T06:51:15.642Z,66.67
2022-09-11T06:53:42.726Z,66.45
2022-09-11T06:56:14.874Z,66.34
2022-09-11T06:58:41.348Z,66.49
2022-09-11T07:01:11.348Z,66.17
2022-09-11T07:03:38.056Z,65.97
2022-09-11T07:06:06.297Z,65.74
2022-09-11T07:08:32.794Z,65.54
2022-09-11T07:11:04.689Z,65.32
2022-09-11T07:13:35.513Z,65.20
2022-09-11T07:16:06.374Z,65.21
2022-09-11T07:18:37.418Z,64.94
2022-09-11T07:21:16.246Z,64.95
2022-09-11T07:23:46.105Z,64.54
2022-09-11T07:26:13.270Z,64.61
2022-09-11T07:28:40.156Z,64.30
2022-09-11T07:31:19.983Z,64.40
2022-09-11T07:33:48.713Z,64.16
2022-09-11T07:36:17.741Z,64.24
2022-09-11T07:38:47.047Z,63.92
2022-09-11T07:41:15.018Z,63.27
2022-09-11T07:43:42.485Z,62.82
2022-09-11T07:46:10.298Z,62.77
2022-09-11T07:48:36.797Z,62.57
2022-09-11T07:51:05.910Z,62.56
2022-09-11T07:53:53.488Z,62.70
2022-09-11T07:56:23.925Z,62.04
2022-09-11T07:58:52.297Z,61.93
2022-09-11T08:01:22.760Z,62.00
2022-09-11T08:04:01.368Z,62.11
2022-09-11T08:06:30.166Z,61.90
2022-09-11T08:09:00.075Z,61.33
2022-09-11T08:11:28.499Z,61.01
2022-09-11T08:13:55.787Z,60.38
2022-09-11T08:16:24.766Z,60.55
2022-09-11T08:18:52.082Z,60.20
2022-09-11T08:21:19.269Z,60.01
2022-09-11T08:23:46.338Z,60.22
2022-09-11T08:26:28.502Z,59.86
2022-09-11T08:28:56.921Z,59.76
2022-09-11T08:31:26.885Z,59.55
2022-09-11T08:33:54.942Z,59.25
2022-09-11T08:36:22.627Z,59.19
2022-09-11T08:38:49.074Z,59.23
2022-09-11T08:41:41.269Z,59.50
2022-09-11T08:44:17.658Z,58.84
2022-09-11T08:46:55.781Z,58.46
2022-09-11T08:49:29.181Z,58.36
2022-09-11T08:52:01.013Z,58.05
2022-09-11T08:54:32.298Z,58.21
2022-09-11T08:57:10.088Z,58.33
2022-09-11T09:00:04.896Z,58.14
2022-09-11T09:02:52.489Z,58.12
2022-09-11T09:05:25.044Z,58.26
2022-09-11T09:07:59.115Z,58.28
2022-09-11T09:10:52.104Z,58.52
2022-09-11T09:13:25.858Z,57.91
2022-09-11T09:16:11.641Z,58.07
2022-09-11T09:18:46.154Z,58.00
2022-09-11T09:21:20.213Z,58.13
2022-09-11T09:23:53.939Z,58.10
2022-09-11T09:26:20.878Z,57.72
2022-09-11T09:28:50.821Z,57.41
2022-09-11T09:31:22.616Z,57.52
2022-09-11T09:34:12.965Z,57.22
2022-09-11T09:37:17.956Z,57.16
2022-09-11T09:39:45.575Z,56.63
2022-09-11T09:42:34.020Z,56.20
2022-09-11T09:45:31.462Z,56.00
2022-09-11T09:47:58.342Z,55.54
2022-09-11T09:50:29.726Z,55.34
2022-09-11T09:53:10.558Z,55.48
2022-09-11T09:55:39.535Z,55.07
2022-09-11T09:58:07.384Z,54.94
2022-09-11T10:00:37.124Z,54.98
2022-09-11T10:03:24.340Z,54.56
2022-09-11T10:05:54.558Z,54.13
2022-09-11T10:08:35.556Z,54.71
2022-09-11T10:11:07.788Z,55.28
2022-09-11T10:13:38.266Z,55.16
2022-09-11T10:16:20.792Z,55.07
2022-09-11T10:18:47.322Z,55.08
2022-09-11T10:21:16.638Z,54.80
2022-09-11T10:23:59.818Z,54.80
2022-09-11T10:26:46.075Z,54.53
2022-09-11T10:29:24.383Z,54.68
2022-09-11T10:31:59.535Z,54.08
2022-09-11T10:34:28.195Z,54.28
2022-09-11T10:37:14.502Z,53.82
2022-09-11T10:39:44.070Z,53.64
2022-09-11T10:42:22.191Z,53.22
2022-09-11T10:44:51.969Z,53.40
2022-09-11T10:47:22.104Z,53.64
2022-09-11T10:49:49.754Z,52.65
2022-09-11T10:52:19.366Z,53.52
2022-09-11T10:55:07.044Z,53.53
2022-09-11T10:57:52.082Z,53.58
2022-09-11T11:00:31.970Z,53.62
2022-09-11T11:03:06.230Z,53.26
2022-09-11T11:05:44.438Z,53.10
2022-09-11T11:08:44.200Z,52.87
2022-09-11T11:11:32.426Z,53.10
2022-09-11T11:14:27.193Z,52.68
2022-09-11T11:17:04.601Z,53.10
2022-09-11T11:19:43.925Z,52.72
2022-09-11T11:22:28.701Z,52.30
2022-09-11T11:25:16.689Z,51.49
2022-09-11T11:28:21.873Z,51.48
2022-09-11T11:30:57.329Z,51.47
2022-09-11T11:33:38.180Z,50.86
2022-09-11T11:36:11.995Z,51.17
2022-09-11T11:38:46.885Z,51.12
2022-09-11T11:41:25.385Z,50.84
2022-09-11T11:43:54.078Z,50.78
2022-09-11T11:46:35.461Z,51.32
2022-09-11T11:49:10.797Z,51.38
2022-09-11T11:51:54.108Z,51.54
2022-09-11T11:54:30.220Z,50.75
2022-09-11T11:57:05.037Z,51.00
2022-09-11T11:59:40.393Z,50.18
2022-09-11T12:02:09.622Z,50.75
2022-09-11T12:05:07.594Z,49.71
2022-09-11T12:07:39.398Z,49.86
2022-09-11T12:10:08.086Z,49.75
2022-09-11T12:12:50.161Z,49.39
2022-09-11T12:15:22.101Z,48.41
2022-09-11T12:18:17.855Z,48.19
2022-09-11T12:20:45.917Z,47.94
2022-09-11T12:23:30.349Z,48.00
2022-09-11T12:26:23.234Z,47.67
2022-09-11T12:29:13.072Z,47.64
2022-09-11T12:31:51.657Z,46.77
2022-09-11T12:34:40.235Z,46.35
2022-09-11T12:37:13.963Z,46.19
2022-09-11T12:39:53.097Z,46.25
2022-09-11T12:42:25.763Z,45.96
2022-09-11T12:44:52.206Z,45.57
2022-09-11T12:47:32.709Z,45.07
2022-09-11T12:50:17.677Z,45.04
2022-09-11T12:52:47.782Z,43.88
2022-09-11T12:56:02.205Z,43.86
2022-09-11T12:58:37.805Z,42.37
2022-09-11T13:01:10.087Z,41.82
2022-09-11T13:03:39.664Z,41.08
2022-09-11T13:06:10.305Z,41.04
2022-09-11T13:08:45.985Z,40.96
2022-09-11T13:11:34.327Z,41.55
2022-09-11T13:14:01.318Z,40.14
2022-09-11T13:16:31.143Z,40.58
2022-09-11T13:19:19.711Z,41.79
2022-09-11T13:21:49.546Z,41.43
2022-09-11T13:24:21.843Z,41.63
2022-09-11T13:26:55.133Z,40.86
2022-09-11T13:29:25.144Z,40.82
2022-09-11T13:31:51.585Z,40.71
2022-09-11T13:34:23.382Z,40.65
2022-09-11T13:36:54.596Z,40.05
2022-09-11T13:39:25.157Z,39.81
2022-09-11T13:42:00.052Z,40.14
2022-09-11T13:44:46.408Z,40.57
2022-09-11T13:47:27.250Z,40.81
2022-09-11T13:49:57.202Z,40.40
2022-09-11T13:52:26.646Z,40.29
2022-09-11T13:54:55.090Z,40.20
2022-09-11T13:57:23.385Z,40.44
2022-09-11T13:59:51.938Z,40.32
2022-09-11T14:02:47.776Z,40.57
2022-09-11T14:05:16.687Z,40.64
2022-09-11T14:07:53.412Z,40.06
2022-09-11T14:10:33.290Z,39.82
2022-09-11T14:13:24.134Z,39.37
2022-09-11T14:15:53.862Z,38.73
2022-09-11T14:18:46.492Z,39.05
2022-09-11T14:21:17.054Z,39.38
2022-09-11T14:23:49.773Z,38.88
2022-09-11T14:26:22.124Z,38.62
2022-09-11T14:28:51.444Z,38.92
2022-09-11T14:31:31.822Z,39.05
2022-09-11T14:34:24.997Z,39.24
2022-09-11T14:36:59.058Z,38.78
2022-09-11T14:39:38.263Z,38.84
2022-09-11T14:42:09.127Z,38.75
2022-09-11T14:44:39.455Z,38.27
2022-09-11T14:47:06.270Z,38.30
2022-09-11T14:49:32.911Z,38.58
2022-09-11T14:52:00.763Z,37.69
2022-09-11T14:54:31.088Z,37.85
2022-09-11T14:56:59.225Z,37.38
2022-09-11T14:59:28.979Z,37.58
2022-09-11T15:01:58.436Z,37.90
2022-09-11T15:04:24.884Z,37.63
2022-09-11T15:06:53.108Z,37.71
2022-09-11T15:09:19.669Z,37.20
2022-09-11T15:11:46.102Z,37.34
2022-09-11T15:14:27.517Z,37.28
2022-09-11T15:17:03.144Z,37.12
2022-09-11T15:19:30.625Z,37.17
2022-09-11T15:21:58.387Z,37.67
2022-09-11T15:24:26.074Z,37.83
2022-09-11T15:26:52.976Z,37.59
2022-09-11T15:29:20.913Z,37.78
2022-09-11T15:31:48.499Z,37.26
2022-09-11T15:34:16.706Z,37.72
2022-09-11T15:36:43.518Z,37.75
2022-09-11T15:39:15.423Z,38.29
2022-09-11T15:41:42.803Z,37.98
2022-09-11T15:44:10.902Z,38.37
2022-09-11T15:46:37.625Z,38.00
2022-09-11T15:49:04.226Z,38.03
2022-09-11T15:51:30.981Z,38.38
2022-09-11T15:54:02.619Z,38.46
2022-09-11T15:56:29.289Z,38.36
2022-09-11T15:59:00.227Z,38.91
2022-09-11T16:01:28.999Z,38.69
2022-09-11T16:03:58.021Z,38.82
2022-09-11T16:06:26.319Z,39.18
2022-09-11T16:08:57.171Z,39.37
2022-09-11T16:11:24.586Z,39.12
2022-09-11T16:13:54.950Z,39.21
2022-09-11T16:16:21.394Z,39.05
2022-09-11T16:18:47.833Z,39.21
2022-09-11T16:21:15.862Z,39.44
2022-09-11T16:23:44.152Z,38.93
2022-09-11T16:26:13.177Z,39.41
2022-09-11T16:28:40.589Z,39.45
2022-09-11T16:31:07.645Z,39.41
2022-09-11T16:33:40.474Z,39.64
2022-09-11T16:36:08.868Z,40.09
2022-09-11T16:38:37.561Z,39.92
2022-09-11T16:41:14.044Z,40.26
2022-09-11T16:43:42.524Z,40.11
2022-09-11T16:46:09.260Z,40.36
2022-09-11T16:48:38.483Z,40.52
2022-09-11T16:51:06.237Z,40.73
2022-09-11T16:53:34.371Z,41.08
2022-09-11T16:56:05.346Z,40.91
2022-09-11T16:58:34.117Z,40.73
2022-09-11T17:01:05.329Z,41.31
2022-09-11T17:03:31.861Z,41.26
2022-09-11T17:05:58.304Z,41.46
2022-09-11T17:08:24.846Z,41.28
2022-09-11T17:10:56.246Z,41.77
2022-09-11T17:13:23.241Z,42.05
2022-09-11T17:15:49.859Z,41.98
2022-09-11T17:18:17.319Z,42.22
2022-09-11T17:20:43.865Z,42.35
2022-09-11T17:23:11.249Z,42.39
2022-09-11T17:25:39.541Z,42.70
2022-09-11T17:28:07.160Z,43.00
2022-09-11T17:30:37.406Z,42.90
2022-09-11T17:33:03.907Z,42.76
2022-09-11T17:35:31.650Z,43.20
2022-09-11T17:37:58.673Z,43.26
2022-09-11T17:40:25.053Z,43.76
2022-09-11T17:42:51.469Z,44.11
2022-09-11T17:45:17.867Z,43.73
2022-09-11T17:47:44.450Z,44.58
2022-09-11T17:50:11.113Z,44.50
2022-09-11T17:52:37.686Z,45.01
2022-09-11T17:55:05.224Z,45.30
2022-09-11T17:57:32.310Z,45.68
2022-09-11T17:59:59.737Z,45.33
2022-09-11T18:02:26.815Z,45.23
2022-09-11T18:04:53.229Z,45.50
2022-09-11T18:07:19.663Z,45.69
2022-09-11T18:09:46.908Z,45.74
2022-09-11T18:12:14.583Z,46.22
2022-09-11T18:14:43.248Z,45.89
2022-09-11T18:17:10.234Z,46.89
2022-09-11T18:19:38.848Z,46.74
2022-09-11T18:22:10.049Z,46.53
2022-09-11T18:24:36.730Z,46.31
2022-09-11T18:27:03.596Z,46.85
2022-09-11T18:29:30.541Z,46.83
2022-09-11T18:31:57.610Z,46.83
2022-09-11T18:34:26.564Z,46.46
2022-09-11T18:36:53.080Z,46.64
2022-09-11T18:39:21.084Z,46.93
2022-09-11T18:41:48.789Z,46.81
2022-09-11T18:44:19.834Z,46.64
2022-09-11T18:46:47.540Z,47.04
2022-09-11T18:49:15.578Z,47.95
2022-09-11T18:51:42.473Z,47.37
2022-09-11T18:54:17.664Z,47.70
2022-09-11T18:56:44.528Z,47.75
2022-09-11T18:59:11.977Z,47.57
2022-09-11T19:01:39.835Z,47.76
2022-09-11T19:04:11.086Z,47.89
2022-09-11T19:06:40.947Z,47.88
2022-09-11T19:09:10.425Z,48.22
2022-09-11T19:11:37.521Z,48.00
2022-09-11T19:14:06.533Z,47.99
2022-09-11T19:16:34.004Z,48.36
2022-09-11T19:19:00.521Z,48.43
2022-09-11T19:21:27.569Z,48.28
2022-09-11T19:23:57.916Z,48.36
2022-09-11T19:26:38.819Z,48.79
2022-09-11T19:29:06.415Z,48.66
2022-09-11T19:31:33.807Z,48.52
2022-09-11T19:34:01.581Z,48.60
2022-09-11T19:36:31.034Z,48.41
2022-09-11T19:39:00.438Z,49.10
2022-09-11T19:41:32.470Z,48.95
2022-09-11T19:44:01.529Z,49.50
2022-09-11T19:46:29.395Z,50.03
2022-09-11T19:48:57.850Z,50.00
2022-09-11T19:51:27.301Z,50.29
2022-09-11T19:54:00.190Z,50.34
2022-09-11T19:56:27.586Z,50.82
2022-09-11T19:58:55.844Z,51.02
2022-09-11T20:01:23.938Z,50.88
2022-09-11T20:03:55.530Z,50.88
2022-09-11T20:06:24.511Z,51.17
2022-09-11T20:09:07.685Z,51.24
2022-09-11T20:11:38.985Z,51.41
2022-09-11T20:14:06.206Z,51.65
2022-09-11T20:16:32.866Z,51.16
2022-09-11T20:19:06.419Z,52.39
2022-09-11T20:21:35.272Z,52.52
2022-09-11T20:24:02.635Z,53.22
2022-09-11T20:26:30.172Z,53.05
2022-09-11T20:29:01.961Z,53.20
2022-09-11T20:31:31.667Z,52.95
2022-09-11T20:34:00.679Z,53.42
2022-09-11T20:36:29.822Z,53.72
2022-09-11T20:38:58.374Z,53.68
2022-09-11T20:41:28.842Z,54.10
2022-09-11T20:43:56.798Z,54.28
2022-09-11T20:46:23.306Z,53.83
2022-09-11T20:48:53.097Z,54.41
2022-09-11T20:51:21.320Z,54.21
2022-09-11T20:53:48.369Z,54.74
2022-09-11T20:56:17.438Z,54.76
2022-09-11T20:58:44.411Z,54.89
2022-09-11T21:01:17.491Z,54.93
2022-09-11T21:03:52.081Z,54.75
2022-09-11T21:06:24.748Z,55.22
2022-09-11T21:08:58.820Z,54.82
2022-09-11T21:11:27.122Z,55.19
2022-09-11T21:13:53.833Z,55.50
2022-09-11T21:16:21.045Z,55.87
2022-09-11T21:18:52.847Z,55.77
2022-09-11T21:21:20.843Z,56.40
2022-09-11T21:23:47.831Z,56.44
2022-09-11T21:26:16.214Z,56.47
2022-09-11T21:28:43.494Z,56.49
2022-09-11T21:31:09.933Z,56.60
2022-09-11T21:33:36.938Z,56.83
2022-09-11T21:36:04.718Z,56.55
2022-09-11T21:38:31.501Z,56.70
2022-09-11T21:41:00.124Z,56.86
2022-09-11T21:43:27.626Z,57.28
2022-09-11T21:45:54.283Z,57.06
2022-09-11T21:48:20.860Z,57.43
2022-09-11T21:50:47.453Z,57.56
2022-09-11T21:53:14.155Z,57.77
2022-09-11T21:55:42.511Z,57.85
2022-09-11T21:58:14.785Z,57.64
2022-09-11T22:00:43.225Z,57.71
2022-09-11T22:03:12.240Z,57.62
2022-09-11T22:05:43.505Z,57.38
2022-09-11T22:08:12.563Z,57.92
2022-09-11T22:10:48.730Z,57.60
2022-09-11T22:13:17.044Z,57.65
2022-09-11T22:15:48.322Z,57.78
2022-09-11T22:18:15.846Z,57.82
2022-09-11T22:20:42.623Z,58.28
2022-09-11T22:23:14.166Z,58.17
2022-09-11T22:25:40.906Z,58.27
2022-09-11T22:28:07.671Z,58.55
2022-09-11T22:30:34.232Z,58.90
2022-09-11T22:33:00.609Z,58.48
2022-09-11T22:35:27.486Z,58.66
2022-09-11T22:37:54.115Z,58.40
2022-09-11T22:40:20.519Z,58.51
2022-09-11T22:42:46.995Z,58.36
2022-09-11T22:45:13.447Z,58.57
2022-09-11T22:47:39.818Z,58.60
2022-09-11T22:50:06.779Z,58.88
2022-09-11T22:52:33.375Z,58.73
2022-09-11T22:55:00.128Z,59.17
2022-09-11T22:57:29.096Z,59.12
2022-09-11T22:59:56.114Z,59.04
2022-09-11T23:02:22.561Z,59.30
2022-09-11T23:05:07.291Z,59.38
2022-09-11T23:07:34.021Z,59.00
2022-09-11T23:10:01.835Z,58.99
2022-09-11T23:12:28.255Z,59.44
2022-09-11T23:14:54.717Z,59.72
2022-09-11T23:17:21.132Z,59.17
2022-09-11T23:19:48.028Z,59.23
2022-09-11T23:22:14.429Z,59.25
2022-09-11T23:24:40.824Z,59.16
2022-09-11T23:27:07.225Z,59.08
2022-09-11T23:29:33.777Z,59.36
2022-09-11T23:32:00.176Z,59.51
2022-09-11T23:34:26.563Z,59.17
2022-09-11T23:36:53.045Z,59.75
2022-09-11T23:39:19.473Z,59.67
2022-09-11T23:41:45.889Z,59.78
2022-09-11T23:44:12.273Z,60.10
2022-09-11T23:46:38.658Z,60.07
2022-09-11T23:49:06.371Z,59.87
2022-09-11T23:51:32.982Z,59.98
2022-09-11T23:53:59.350Z,59.65
2022-09-11T23:56:25.705Z,60.05
2022-09-11T23:58:52.255Z,59.96
